P/v Golden Gate — WDE5665 — position and weather

sailwx.info

Track history (hours):
 
Tides and Currents Weather Stations Pressure Air Temp Water Temp Dewpoint Dewpoint Depression Visibility Wind Speed Wind Dir Waves Ship Positions

P/v Golden Gate

More information available from US FCC via Universal Licensing System and Coast Guard Vessel Documentation Center.

Last reported at 2014-Sep-01 23:33 UTC. Time now 2014-Sep-02 00:01 UTC.
Position N 37°48' W 122°22'.

Length 23 m; draft 2 m.

Type: Pilot. MMSI: 367370010.

Date/timePositionNaut miles runAvg speedWind from/ knotsBaromVisibWave heightAir tempDewpointWater temp
2014-Sep-01 23:33N 37°48' W 122°22'6 6.3
2014-Sep-01 22:33N 37°48' W 122°30'5 5.2
2014-Sep-01 21:32N 37°48' W 122°24'1 1.5
2014-Sep-01 20:33N 37°47' W 122°22'1 1.4
2014-Sep-01 19:33N 37°48' W 122°24'0 0.0
2014-Sep-01 18:33N 37°48' W 122°24'0 0.4
2014-Sep-01 17:33N 37°48' W 122°23'0 0.4
2014-Sep-01 16:33N 37°48' W 122°24'0 0.0
2014-Sep-01 15:33N 37°48' W 122°24'0 0.0
2014-Sep-01 14:33N 37°48' W 122°24'0 0.0
2014-Sep-01 13:33N 37°48' W 122°24'1 0.7
2014-Sep-01 12:33N 37°48' W 122°23'1 0.7
2014-Sep-01 11:33N 37°48' W 122°24'0 0.1
2014-Sep-01 10:34N 37°48' W 122°24'0 0.1
2014-Sep-01 09:33N 37°48' W 122°24'4 4.3
2014-Sep-01 08:33N 37°45' W 122°20'3 2.9
2014-Sep-01 07:34N 37°48' W 122°19'3 3.0
2014-Sep-01 06:33N 37°46' W 122°22'3 3.0
2014-Sep-01 05:33N 37°48' W 122°24'0 0.0
2014-Sep-01 04:33N 37°48' W 122°24'0 0.0
2014-Sep-01 03:33N 37°48' W 122°24'0 0.0
2014-Sep-01 02:33N 37°48' W 122°24'0 0.0
2014-Sep-01 01:33N 37°48' W 122°24'0 0.0
2014-Sep-01 00:33N 37°48' W 122°24'0 0.0
2014-Aug-31 23:33N 37°48' W 122°24'4 4.4
2014-Aug-31 22:33N 37°45' W 122°20'1615.0
2014-Aug-31 21:31N 37°46' W 122°40'1415.0
2014-Aug-31 20:34N 37°48' W 122°22'2 1.5
2014-Aug-31 19:33N 37°48' W 122°24'0 0.0
2014-Aug-31 18:34N 37°48' W 122°24'0 0.0
2014-Aug-31 17:33N 37°48' W 122°24'0 0.1
2014-Aug-31 16:33N 37°48' W 122°24'0 0.1
2014-Aug-31 15:33N 37°48' W 122°24'0 0.0
2014-Aug-31 14:34N 37°48' W 122°24'0 0.0
2014-Aug-31 13:33N 37°48' W 122°24'1 1.3
2014-Aug-31 12:34N 37°47' W 122°23'1 1.3
2014-Aug-31 11:33N 37°48' W 122°24'0 0.3
2014-Aug-31 10:33N 37°48' W 122°23'0 0.3
2014-Aug-31 09:33N 37°48' W 122°24'0 0.0
2014-Aug-31 08:33N 37°48' W 122°24'0 0.0
2014-Aug-31 07:33N 37°48' W 122°24'0 0.0
2014-Aug-31 06:33N 37°48' W 122°24'0 0.0
2014-Aug-31 05:33N 37°48' W 122°24'0 0.0
2014-Aug-31 04:33N 37°48' W 122°24'4 4.2
2014-Aug-31 03:34N 37°49' W 122°29'3 3.0
2014-Aug-31 02:33N 37°49' W 122°25'1 1.5
2014-Aug-31 01:33N 37°48' W 122°24'0 0.0
2014-Aug-31 00:34N 37°48' W 122°24'3 2.9
2014-Aug-30 23:34N 37°49' W 122°20'3 2.9
2014-Aug-30 22:33N 37°48' W 122°24'0 0.0
2014-Aug-30 21:33N 37°48' W 122°24'0 0.0
2014-Aug-30 20:33N 37°48' W 122°24'2 1.9
2014-Aug-30 19:34N 37°48' W 122°21'3 2.7
2014-Aug-30 18:34N 37°48' W 122°18'5 4.6
2014-Aug-30 17:33N 37°48' W 122°24'0 0.0
2014-Aug-30 16:33N 37°48' W 122°24'4 3.8
2014-Aug-30 15:33N 37°46' W 122°20'4 3.8
2014-Aug-30 14:34N 37°48' W 122°24'0 0.0
2014-Aug-30 13:33N 37°48' W 122°24'0 0.0
2014-Aug-30 12:33N 37°48' W 122°24'0 0.0
2014-Aug-30 11:33N 37°48' W 122°24'2 1.6
2014-Aug-30 10:34N 37°48' W 122°22'2 1.6
2014-Aug-30 09:34N 37°48' W 122°24'3 2.8
2014-Aug-30 08:33N 37°46' W 122°21'3 2.8
2014-Aug-30 07:33N 37°48' W 122°24'0 0.0
2014-Aug-30 06:33N 37°48' W 122°24'0 0.0
2014-Aug-30 05:33N 37°48' W 122°24'0 0.0
2014-Aug-30 04:33N 37°48' W 122°24'0 0.0
2014-Aug-30 03:33N 37°48' W 122°24'0 0.0
2014-Aug-30 02:33N 37°48' W 122°24'0 0.0
2014-Aug-30 01:33N 37°48' W 122°24'0 0.0
2014-Aug-30 00:33N 37°48' W 122°24'0 0.0
2014-Aug-29 23:33N 37°48' W 122°24'0 0.0
2014-Aug-29 22:33N 37°48' W 122°24'0 0.0
2014-Aug-29 21:33N 37°48' W 122°24'3 2.9
2014-Aug-29 20:33N 37°46' W 122°21'3 2.8
2014-Aug-29 19:33N 37°48' W 122°24'0 0.0
2014-Aug-29 18:33N 37°48' W 122°24'0 0.0
2014-Aug-29 17:34N 37°48' W 122°24'0 0.0
2014-Aug-29 16:33N 37°48' W 122°24'0 0.0
2014-Aug-29 15:33N 37°48' W 122°24'0 0.0
2014-Aug-29 14:33N 37°48' W 122°24'0 0.0
2014-Aug-29 13:33N 37°48' W 122°24'0 0.3
2014-Aug-29 12:34N 37°48' W 122°24'0 0.3
2014-Aug-29 11:33N 37°48' W 122°24'0 0.0
2014-Aug-29 10:33N 37°48' W 122°24'0 0.0
2014-Aug-29 09:33N 37°48' W 122°24'0 0.0
2014-Aug-29 08:33N 37°48' W 122°24'2 2.4
2014-Aug-29 07:33N 37°47' W 122°21'1110.8
2014-Aug-29 06:33N 37°47' W 122°34'8 8.5
2014-Aug-29 05:34N 37°48' W 122°24'3 2.6
2014-Aug-29 04:34N 37°46' W 122°21'3 2.6
2014-Aug-29 03:33N 37°48' W 122°24'1110.4
2014-Aug-29 02:33N 37°46' W 122°37'1212.3
2014-Aug-29 01:33N 37°46' W 122°21'2 2.0
2014-Aug-29 00:33N 37°48' W 122°21'7 7.0
2014-Aug-28 23:33N 37°49' W 122°30'4 4.5
2014-Aug-28 22:33N 37°49' W 122°24'1 0.7
2014-Aug-28 21:33N 37°48' W 122°24'0 0.0
2014-Aug-28 20:33N 37°48' W 122°24'2 2.1
2014-Aug-28 19:33N 37°49' W 122°26'5 4.7
2014-Aug-28 18:34N 37°49' W 122°20'4 3.9
2014-Aug-28 17:33N 37°49' W 122°25'1 1.2
2014-Aug-28 16:33N 37°48' W 122°24'0 0.2
2014-Aug-28 15:34N 37°48' W 122°24'1 0.9
2014-Aug-28 14:34N 37°48' W 122°23'3 2.5
2014-Aug-28 13:34N 37°49' W 122°20'2 2.4
2014-Aug-28 12:33N 37°48' W 122°23'1 1.0
2014-Aug-28 11:33N 37°48' W 122°24'0 0.0
2014-Aug-28 10:33N 37°48' W 122°24'0 0.0
2014-Aug-28 09:33N 37°48' W 122°24'0 0.0
2014-Aug-28 08:34N 37°48' W 122°24'1 1.5
2014-Aug-28 07:34N 37°49' W 122°24'1 1.5
2014-Aug-28 06:33N 37°48' W 122°24'0 0.0
2014-Aug-28 05:33N 37°48' W 122°24'1 0.7
2014-Aug-28 04:33N 37°49' W 122°24'5 5.2
2014-Aug-28 03:31N 37°48' W 122°31'7 7.2
2014-Aug-28 02:33N 37°48' W 122°22'1 1.4
2014-Aug-28 01:33N 37°48' W 122°24'3 1.4
2014-Aug-27 23:34N 37°48' W 122°20'2 2.4
2014-Aug-27 22:33N 37°48' W 122°23'3 2.7
2014-Aug-27 21:33N 37°46' W 122°22'1 1.1
2014-Aug-27 20:34N 37°45' W 122°22'3 3.3
2014-Aug-27 19:33N 37°48' W 122°24'0 0.0
2014-Aug-27 18:33N 37°48' W 122°24'0 0.0
2014-Aug-27 17:33N 37°48' W 122°24'0 0.1
2014-Aug-27 16:33N 37°48' W 122°24'3 2.5
2014-Aug-27 15:34N 37°46' W 122°22'1 1.0
2014-Aug-27 14:33N 37°46' W 122°20'3 3.3
2014-Aug-27 13:34N 37°48' W 122°24'0 0.1
2014-Aug-27 12:33N 37°48' W 122°24'0 0.0
2014-Aug-27 11:33N 37°48' W 122°24'2 2.4
2014-Aug-27 10:33N 37°46' W 122°22'2 2.4
2014-Aug-27 09:33N 37°48' W 122°24'0 0.1
2014-Aug-27 08:33N 37°48' W 122°23'0 0.3
2014-Aug-27 07:33N 37°48' W 122°24'0 0.0
2014-Aug-27 06:33N 37°48' W 122°24'0 0.0
2014-Aug-27 05:33N 37°48' W 122°24'0 0.0
2014-Aug-27 04:33N 37°48' W 122°24'0 0.0
2014-Aug-27 03:33N 37°48' W 122°24'0 0.0
2014-Aug-27 02:33N 37°48' W 122°24'4 4.0
2014-Aug-27 01:33N 37°49' W 122°19'4 4.0
2014-Aug-27 00:33N 37°48' W 122°24'0 0.0
2014-Aug-26 23:33N 37°48' W 122°24'0 0.0
2014-Aug-26 22:33N 37°48' W 122°24'1 1.0
2014-Aug-26 21:33N 37°49' W 122°24'1 1.0
2014-Aug-26 20:33N 37°48' W 122°24'0 0.0
2014-Aug-26 19:33N 37°48' W 122°24'0 0.0
2014-Aug-26 18:33N 37°48' W 122°24'0 0.0
2014-Aug-26 17:33N 37°48' W 122°24'0 0.0
2014-Aug-26 16:34N 37°48' W 122°24'4 4.1
2014-Aug-26 15:33N 37°48' W 122°19'2 1.6
2014-Aug-26 14:34N 37°49' W 122°20'0 0.3
2014-Aug-26 13:33N 37°48' W 122°21'1 0.8
2014-Aug-26 12:34N 37°48' W 122°22'2 1.8
2014-Aug-26 11:33N 37°48' W 122°24'0 0.3
2014-Aug-26 10:33N 37°48' W 122°23'0 0.3
2014-Aug-26 09:33N 37°48' W 122°24'0 0.0
2014-Aug-26 08:34N 37°48' W 122°24'1 1.4
2014-Aug-26 07:33N 37°49' W 122°25'1 1.4
2014-Aug-26 06:33N 37°48' W 122°24'0 0.0
2014-Aug-26 05:33N 37°48' W 122°24'0 0.0
2014-Aug-26 04:33N 37°48' W 122°24'3 2.8
2014-Aug-26 03:33N 37°46' W 122°21'2 2.0
2014-Aug-26 02:34N 37°48' W 122°21'2 2.2
2014-Aug-26 01:33N 37°48' W 122°24'1 0.6
2014-Aug-26 00:33N 37°48' W 122°23'1 0.6
2014-Aug-25 23:33N 37°48' W 122°24'1 1.3
2014-Aug-25 22:33N 37°49' W 122°25'0 0.1
2014-Aug-25 21:33N 37°49' W 122°25'1 1.2
2014-Aug-25 20:33N 37°48' W 122°24'3 3.3
2014-Aug-25 19:33N 37°48' W 122°20'1 1.0
2014-Aug-25 18:33N 37°49' W 122°19'4 3.7
2014-Aug-25 17:33N 37°48' W 122°24'0 0.0
2014-Aug-25 16:33N 37°48' W 122°24'4 3.8
2014-Aug-25 15:33N 37°49' W 122°28'6 5.8
2014-Aug-25 14:33N 37°48' W 122°21'1 1.1
2014-Aug-25 13:34N 37°49' W 122°20'3 3.1
2014-Aug-25 12:33N 37°48' W 122°24'0 0.0
2014-Aug-25 11:33N 37°48' W 122°24'0 0.0
2014-Aug-25 10:33N 37°48' W 122°24'0 0.0
2014-Aug-25 09:33N 37°48' W 122°24'0 0.0
2014-Aug-25 08:33N 37°48' W 122°24'0 0.0
2014-Aug-25 07:33N 37°48' W 122°24'0 0.0
2014-Aug-25 06:33N 37°48' W 122°24'0 0.0
2014-Aug-25 05:33N 37°48' W 122°24'2 2.1
2014-Aug-25 04:34N 37°49' W 122°26'2 2.1
2014-Aug-25 03:33N 37°48' W 122°24'0 0.0
2014-Aug-25 02:33N 37°48' W 122°24'3 3.1
2014-Aug-25 01:32N 37°49' W 122°28'3 2.7
2014-Aug-25 00:33N 37°49' W 122°24'1 0.9
2014-Aug-24 23:33N 37°48' W 122°24'0 0.0
2014-Aug-24 22:33N 37°48' W 122°24'1 0.6
2014-Aug-24 21:33N 37°49' W 122°24'0 0.4
2014-Aug-24 20:33N 37°48' W 122°24'0 0.2
2014-Aug-24 19:33N 37°48' W 122°24'9 7.9
2014-Aug-24 18:27N 37°47' W 122°35'9 9.8
2014-Aug-24 17:33N 37°48' W 122°24'0 0.0
2014-Aug-24 16:33N 37°48' W 122°24'3 3.3
2014-Aug-24 15:33N 37°46' W 122°21'2 2.2
2014-Aug-24 14:33N 37°48' W 122°20'3 2.7
2014-Aug-24 13:33N 37°48' W 122°24'0 0.0
2014-Aug-24 12:33N 37°48' W 122°24'0 0.0
2014-Aug-24 11:33N 37°48' W 122°24'0 0.0
2014-Aug-24 10:33N 37°48' W 122°24'0 0.0
2014-Aug-24 09:33N 37°48' W 122°24'0 0.0
2014-Aug-24 08:33N 37°48' W 122°24'0 0.0
2014-Aug-24 07:33N 37°48' W 122°24'0 0.0
2014-Aug-24 06:33N 37°48' W 122°24'0 0.0
2014-Aug-24 05:33N 37°48' W 122°24'0 0.0
2014-Aug-24 04:33N 37°48' W 122°24'4 4.0
2014-Aug-24 03:33N 37°49' W 122°19'1010.4
2014-Aug-24 02:33N 37°48' W 122°32'3 3.3
2014-Aug-24 01:33N 37°49' W 122°28'6 6.2
2014-Aug-24 00:33N 37°48' W 122°21'0 0.3
2014-Aug-23 23:33N 37°48' W 122°20'3 2.7
2014-Aug-23 22:33N 37°48' W 122°24'3 3.3
2014-Aug-23 21:33N 37°46' W 122°21'3 3.3
2014-Aug-23 20:33N 37°48' W 122°24'0 0.0
2014-Aug-23 19:33N 37°48' W 122°24'0 0.0
2014-Aug-23 03:33N 37°48' W 122°24'0 0.0
2014-Aug-23 02:33N 37°48' W 122°24'0 0.0
2014-Aug-23 01:33N 37°48' W 122°24'0 0.0
2014-Aug-23 00:33N 37°48' W 122°24'  
Track history (hours):
 
Tides and Currents Weather Stations Pressure Air Temp Water Temp Dewpoint Dewpoint Depression Visibility Wind Speed Wind Dir Waves Ship Positions

P/v Golden Gate

More information available from US FCC via Universal Licensing System and Coast Guard Vessel Documentation Center.

Last reported at 2014-Sep-01 23:33 UTC. Time now 2014-Sep-02 00:01 UTC.
Position N 37°48' W 122°22'.

Length 23 m; draft 2 m.

Type: Pilot. MMSI: 367370010.

Date/timePositionNaut miles runAvg speedWind from/ knotsBaromVisibWave heightAir tempDewpointWater temp
2014-Sep-01 23:33N 37°48' W 122°22'6 6.3
2014-Sep-01 22:33N 37°48' W 122°30'5 5.2
2014-Sep-01 21:32N 37°48' W 122°24'1 1.5
2014-Sep-01 20:33N 37°47' W 122°22'1 1.4
2014-Sep-01 19:33N 37°48' W 122°24'0 0.0
2014-Sep-01 18:33N 37°48' W 122°24'0 0.4
2014-Sep-01 17:33N 37°48' W 122°23'0 0.4
2014-Sep-01 16:33N 37°48' W 122°24'0 0.0
2014-Sep-01 15:33N 37°48' W 122°24'0 0.0
2014-Sep-01 14:33N 37°48' W 122°24'0 0.0
2014-Sep-01 13:33N 37°48' W 122°24'1 0.7
2014-Sep-01 12:33N 37°48' W 122°23'1 0.7
2014-Sep-01 11:33N 37°48' W 122°24'0 0.1
2014-Sep-01 10:34N 37°48' W 122°24'0 0.1
2014-Sep-01 09:33N 37°48' W 122°24'4 4.3
2014-Sep-01 08:33N 37°45' W 122°20'3 2.9
2014-Sep-01 07:34N 37°48' W 122°19'3 3.0
2014-Sep-01 06:33N 37°46' W 122°22'3 3.0
2014-Sep-01 05:33N 37°48' W 122°24'0 0.0
2014-Sep-01 04:33N 37°48' W 122°24'0 0.0
2014-Sep-01 03:33N 37°48' W 122°24'0 0.0
2014-Sep-01 02:33N 37°48' W 122°24'0 0.0
2014-Sep-01 01:33N 37°48' W 122°24'0 0.0
2014-Sep-01 00:33N 37°48' W 122°24'0 0.0
2014-Aug-31 23:33N 37°48' W 122°24'4 4.4
2014-Aug-31 22:33N 37°45' W 122°20'1615.0
2014-Aug-31 21:31N 37°46' W 122°40'1415.0
2014-Aug-31 20:34N 37°48' W 122°22'2 1.5
2014-Aug-31 19:33N 37°48' W 122°24'0 0.0
2014-Aug-31 18:34N 37°48' W 122°24'0 0.0
2014-Aug-31 17:33N 37°48' W 122°24'0 0.1
2014-Aug-31 16:33N 37°48' W 122°24'0 0.1
2014-Aug-31 15:33N 37°48' W 122°24'0 0.0
2014-Aug-31 14:34N 37°48' W 122°24'0 0.0
2014-Aug-31 13:33N 37°48' W 122°24'1 1.3
2014-Aug-31 12:34N 37°47' W 122°23'1 1.3
2014-Aug-31 11:33N 37°48' W 122°24'0 0.3
2014-Aug-31 10:33N 37°48' W 122°23'0 0.3
2014-Aug-31 09:33N 37°48' W 122°24'0 0.0
2014-Aug-31 08:33N 37°48' W 122°24'0 0.0
2014-Aug-31 07:33N 37°48' W 122°24'0 0.0
2014-Aug-31 06:33N 37°48' W 122°24'0 0.0
2014-Aug-31 05:33N 37°48' W 122°24'0 0.0
2014-Aug-31 04:33N 37°48' W 122°24'4 4.2
2014-Aug-31 03:34N 37°49' W 122°29'3 3.0
2014-Aug-31 02:33N 37°49' W 122°25'1 1.5
2014-Aug-31 01:33N 37°48' W 122°24'0 0.0
2014-Aug-31 00:34N 37°48' W 122°24'3 2.9
2014-Aug-30 23:34N 37°49' W 122°20'3 2.9
2014-Aug-30 22:33N 37°48' W 122°24'0 0.0
2014-Aug-30 21:33N 37°48' W 122°24'0 0.0
2014-Aug-30 20:33N 37°48' W 122°24'2 1.9
2014-Aug-30 19:34N 37°48' W 122°21'3 2.7
2014-Aug-30 18:34N 37°48' W 122°18'5 4.6
2014-Aug-30 17:33N 37°48' W 122°24'0 0.0
2014-Aug-30 16:33N 37°48' W 122°24'4 3.8
2014-Aug-30 15:33N 37°46' W 122°20'4 3.8
2014-Aug-30 14:34N 37°48' W 122°24'0 0.0
2014-Aug-30 13:33N 37°48' W 122°24'0 0.0
2014-Aug-30 12:33N 37°48' W 122°24'0 0.0
2014-Aug-30 11:33N 37°48' W 122°24'2 1.6
2014-Aug-30 10:34N 37°48' W 122°22'2 1.6
2014-Aug-30 09:34N 37°48' W 122°24'3 2.8
2014-Aug-30 08:33N 37°46' W 122°21'3 2.8
2014-Aug-30 07:33N 37°48' W 122°24'0 0.0
2014-Aug-30 06:33N 37°48' W 122°24'0 0.0
2014-Aug-30 05:33N 37°48' W 122°24'0 0.0
2014-Aug-30 04:33N 37°48' W 122°24'0 0.0
2014-Aug-30 03:33N 37°48' W 122°24'0 0.0
2014-Aug-30 02:33N 37°48' W 122°24'0 0.0
2014-Aug-30 01:33N 37°48' W 122°24'0 0.0
2014-Aug-30 00:33N 37°48' W 122°24'0 0.0
2014-Aug-29 23:33N 37°48' W 122°24'0 0.0
2014-Aug-29 22:33N 37°48' W 122°24'0 0.0
2014-Aug-29 21:33N 37°48' W 122°24'3 2.9
2014-Aug-29 20:33N 37°46' W 122°21'3 2.8
2014-Aug-29 19:33N 37°48' W 122°24'0 0.0
2014-Aug-29 18:33N 37°48' W 122°24'0 0.0
2014-Aug-29 17:34N 37°48' W 122°24'0 0.0
2014-Aug-29 16:33N 37°48' W 122°24'0 0.0
2014-Aug-29 15:33N 37°48' W 122°24'0 0.0
2014-Aug-29 14:33N 37°48' W 122°24'0 0.0
2014-Aug-29 13:33N 37°48' W 122°24'0 0.3
2014-Aug-29 12:34N 37°48' W 122°24'0 0.3
2014-Aug-29 11:33N 37°48' W 122°24'0 0.0
2014-Aug-29 10:33N 37°48' W 122°24'0 0.0
2014-Aug-29 09:33N 37°48' W 122°24'0 0.0
2014-Aug-29 08:33N 37°48' W 122°24'2 2.4
2014-Aug-29 07:33N 37°47' W 122°21'1110.8
2014-Aug-29 06:33N 37°47' W 122°34'8 8.5
2014-Aug-29 05:34N 37°48' W 122°24'3 2.6
2014-Aug-29 04:34N 37°46' W 122°21'3 2.6
2014-Aug-29 03:33N 37°48' W 122°24'1110.4
2014-Aug-29 02:33N 37°46' W 122°37'1212.3
2014-Aug-29 01:33N 37°46' W 122°21'2 2.0
2014-Aug-29 00:33N 37°48' W 122°21'7 7.0
2014-Aug-28 23:33N 37°49' W 122°30'4 4.5
2014-Aug-28 22:33N 37°49' W 122°24'1 0.7
2014-Aug-28 21:33N 37°48' W 122°24'0 0.0
2014-Aug-28 20:33N 37°48' W 122°24'2 2.1
2014-Aug-28 19:33N 37°49' W 122°26'5 4.7
2014-Aug-28 18:34N 37°49' W 122°20'4 3.9
2014-Aug-28 17:33N 37°49' W 122°25'1 1.2
2014-Aug-28 16:33N 37°48' W 122°24'0 0.2
2014-Aug-28 15:34N 37°48' W 122°24'1 0.9
2014-Aug-28 14:34N 37°48' W 122°23'3 2.5
2014-Aug-28 13:34N 37°49' W 122°20'2 2.4
2014-Aug-28 12:33N 37°48' W 122°23'1 1.0
2014-Aug-28 11:33N 37°48' W 122°24'0 0.0
2014-Aug-28 10:33N 37°48' W 122°24'0 0.0
2014-Aug-28 09:33N 37°48' W 122°24'0 0.0
2014-Aug-28 08:34N 37°48' W 122°24'1 1.5
2014-Aug-28 07:34N 37°49' W 122°24'1 1.5
2014-Aug-28 06:33N 37°48' W 122°24'0 0.0
2014-Aug-28 05:33N 37°48' W 122°24'1 0.7
2014-Aug-28 04:33N 37°49' W 122°24'5 5.2
2014-Aug-28 03:31N 37°48' W 122°31'7 7.2
2014-Aug-28 02:33N 37°48' W 122°22'1 1.4
2014-Aug-28 01:33N 37°48' W 122°24'3 1.4
2014-Aug-27 23:34N 37°48' W 122°20'2 2.4
2014-Aug-27 22:33N 37°48' W 122°23'3 2.7
2014-Aug-27 21:33N 37°46' W 122°22'1 1.1
2014-Aug-27 20:34N 37°45' W 122°22'3 3.3
2014-Aug-27 19:33N 37°48' W 122°24'0 0.0
2014-Aug-27 18:33N 37°48' W 122°24'0 0.0
2014-Aug-27 17:33N 37°48' W 122°24'0 0.1
2014-Aug-27 16:33N 37°48' W 122°24'3 2.5
2014-Aug-27 15:34N 37°46' W 122°22'1 1.0
2014-Aug-27 14:33N 37°46' W 122°20'3 3.3
2014-Aug-27 13:34N 37°48' W 122°24'0 0.1
2014-Aug-27 12:33N 37°48' W 122°24'0 0.0
2014-Aug-27 11:33N 37°48' W 122°24'2 2.4
2014-Aug-27 10:33N 37°46' W 122°22'2 2.4
2014-Aug-27 09:33N 37°48' W 122°24'0 0.1
2014-Aug-27 08:33N 37°48' W 122°23'0 0.3
2014-Aug-27 07:33N 37°48' W 122°24'0 0.0
2014-Aug-27 06:33N 37°48' W 122°24'0 0.0
2014-Aug-27 05:33N 37°48' W 122°24'0 0.0
2014-Aug-27 04:33N 37°48' W 122°24'0 0.0
2014-Aug-27 03:33N 37°48' W 122°24'0 0.0
2014-Aug-27 02:33N 37°48' W 122°24'4 4.0
2014-Aug-27 01:33N 37°49' W 122°19'4 4.0
2014-Aug-27 00:33N 37°48' W 122°24'0 0.0
2014-Aug-26 23:33N 37°48' W 122°24'0 0.0
2014-Aug-26 22:33N 37°48' W 122°24'1 1.0
2014-Aug-26 21:33N 37°49' W 122°24'1 1.0
2014-Aug-26 20:33N 37°48' W 122°24'0 0.0
2014-Aug-26 19:33N 37°48' W 122°24'0 0.0
2014-Aug-26 18:33N 37°48' W 122°24'0 0.0
2014-Aug-26 17:33N 37°48' W 122°24'0 0.0
2014-Aug-26 16:34N 37°48' W 122°24'4 4.1
2014-Aug-26 15:33N 37°48' W 122°19'2 1.6
2014-Aug-26 14:34N 37°49' W 122°20'0 0.3
2014-Aug-26 13:33N 37°48' W 122°21'1 0.8
2014-Aug-26 12:34N 37°48' W 122°22'2 1.8
2014-Aug-26 11:33N 37°48' W 122°24'0 0.3
2014-Aug-26 10:33N 37°48' W 122°23'0 0.3
2014-Aug-26 09:33N 37°48' W 122°24'0 0.0
2014-Aug-26 08:34N 37°48' W 122°24'1 1.4
2014-Aug-26 07:33N 37°49' W 122°25'1 1.4
2014-Aug-26 06:33N 37°48' W 122°24'0 0.0
2014-Aug-26 05:33N 37°48' W 122°24'0 0.0
2014-Aug-26 04:33N 37°48' W 122°24'3 2.8
2014-Aug-26 03:33N 37°46' W 122°21'2 2.0
2014-Aug-26 02:34N 37°48' W 122°21'2 2.2
2014-Aug-26 01:33N 37°48' W 122°24'1 0.6
2014-Aug-26 00:33N 37°48' W 122°23'1 0.6
2014-Aug-25 23:33N 37°48' W 122°24'1 1.3
2014-Aug-25 22:33N 37°49' W 122°25'0 0.1
2014-Aug-25 21:33N 37°49' W 122°25'1 1.2
2014-Aug-25 20:33N 37°48' W 122°24'3 3.3
2014-Aug-25 19:33N 37°48' W 122°20'1 1.0
2014-Aug-25 18:33N 37°49' W 122°19'4 3.7
2014-Aug-25 17:33N 37°48' W 122°24'0 0.0
2014-Aug-25 16:33N 37°48' W 122°24'4 3.8
2014-Aug-25 15:33N 37°49' W 122°28'6 5.8
2014-Aug-25 14:33N 37°48' W 122°21'1 1.1
2014-Aug-25 13:34N 37°49' W 122°20'3 3.1
2014-Aug-25 12:33N 37°48' W 122°24'0 0.0
2014-Aug-25 11:33N 37°48' W 122°24'0 0.0
2014-Aug-25 10:33N 37°48' W 122°24'0 0.0
2014-Aug-25 09:33N 37°48' W 122°24'0 0.0
2014-Aug-25 08:33N 37°48' W 122°24'0 0.0
2014-Aug-25 07:33N 37°48' W 122°24'0 0.0
2014-Aug-25 06:33N 37°48' W 122°24'0 0.0
2014-Aug-25 05:33N 37°48' W 122°24'2 2.1
2014-Aug-25 04:34N 37°49' W 122°26'2 2.1
2014-Aug-25 03:33N 37°48' W 122°24'0 0.0
2014-Aug-25 02:33N 37°48' W 122°24'3 3.1
2014-Aug-25 01:32N 37°49' W 122°28'3 2.7
2014-Aug-25 00:33N 37°49' W 122°24'1 0.9
2014-Aug-24 23:33N 37°48' W 122°24'0 0.0
2014-Aug-24 22:33N 37°48' W 122°24'1 0.6
2014-Aug-24 21:33N 37°49' W 122°24'0 0.4
2014-Aug-24 20:33N 37°48' W 122°24'0 0.2
2014-Aug-24 19:33N 37°48' W 122°24'9 7.9
2014-Aug-24 18:27N 37°47' W 122°35'9 9.8
2014-Aug-24 17:33N 37°48' W 122°24'0 0.0
2014-Aug-24 16:33N 37°48' W 122°24'3 3.3
2014-Aug-24 15:33N 37°46' W 122°21'2 2.2
2014-Aug-24 14:33N 37°48' W 122°20'3 2.7
2014-Aug-24 13:33N 37°48' W 122°24'0 0.0
2014-Aug-24 12:33N 37°48' W 122°24'0 0.0
2014-Aug-24 11:33N 37°48' W 122°24'0 0.0
2014-Aug-24 10:33N 37°48' W 122°24'0 0.0
2014-Aug-24 09:33N 37°48' W 122°24'0 0.0
2014-Aug-24 08:33N 37°48' W 122°24'0 0.0
2014-Aug-24 07:33N 37°48' W 122°24'0 0.0
2014-Aug-24 06:33N 37°48' W 122°24'0 0.0
2014-Aug-24 05:33N 37°48' W 122°24'0 0.0
2014-Aug-24 04:33N 37°48' W 122°24'4 4.0
2014-Aug-24 03:33N 37°49' W 122°19'1010.4
2014-Aug-24 02:33N 37°48' W 122°32'3 3.3
2014-Aug-24 01:33N 37°49' W 122°28'6 6.2
2014-Aug-24 00:33N 37°48' W 122°21'0 0.3
2014-Aug-23 23:33N 37°48' W 122°20'3 2.7
2014-Aug-23 22:33N 37°48' W 122°24'3 3.3
2014-Aug-23 21:33N 37°46' W 122°21'3 3.3
2014-Aug-23 20:33N 37°48' W 122°24'0 0.0
2014-Aug-23 19:33N 37°48' W 122°24'0 0.0
2014-Aug-23 03:33N 37°48' W 122°24'0 0.0
2014-Aug-23 02:33N 37°48' W 122°24'0 0.0
2014-Aug-23 01:33N 37°48' W 122°24'0 0.0
2014-Aug-23 00:33N 37°48' W 122°24'  

Dump ship's entire track history